createdAt,value
2019-05-13T00:00:14.649Z,7.00
2019-05-13T00:02:43.854Z,7.10
2019-05-13T00:05:11.586Z,7.10
2019-05-13T00:07:39.919Z,7.10
2019-05-13T00:10:08.304Z,7.10
2019-05-13T00:12:36.807Z,7.10
2019-05-13T00:15:05.559Z,7.00
2019-05-13T00:17:33.939Z,7.00
2019-05-13T00:20:04.025Z,7.00
2019-05-13T00:22:30.828Z,6.90
2019-05-13T00:24:59.136Z,6.90
2019-05-13T00:27:27.751Z,7.00
2019-05-13T00:29:56.117Z,7.00
2019-05-13T00:32:24.521Z,7.00
2019-05-13T00:34:53.391Z,7.00
2019-05-13T00:37:21.373Z,7.10
2019-05-13T00:39:49.798Z,7.10
2019-05-13T00:42:18.285Z,7.10
2019-05-13T00:44:46.703Z,7.10
2019-05-13T00:47:15.394Z,7.10
2019-05-13T00:49:43.854Z,7.00
2019-05-13T00:52:14.143Z,7.00
2019-05-13T00:54:40.541Z,7.00
2019-05-13T00:57:08.972Z,6.90
2019-05-13T00:59:37.309Z,6.90
2019-05-13T01:02:05.681Z,7.00
2019-05-13T01:04:34.199Z,7.00
2019-05-13T01:07:04.387Z,7.00
2019-05-13T01:09:30.920Z,7.00
2019-05-13T01:11:59.347Z,7.00
2019-05-13T01:14:27.700Z,6.90
2019-05-13T01:16:56.101Z,6.90
2019-05-13T01:19:24.619Z,6.90
2019-05-13T01:21:54.026Z,6.90
2019-05-13T01:24:21.654Z,6.90
2019-05-13T01:26:50.251Z,6.90
2019-05-13T01:29:18.610Z,7.00
2019-05-13T01:31:46.939Z,6.90
2019-05-13T01:34:15.707Z,7.00
2019-05-13T01:36:44.724Z,7.00
2019-05-13T01:39:13.860Z,7.10
2019-05-13T01:41:40.925Z,7.00
2019-05-13T01:44:09.307Z,7.00
2019-05-13T01:46:37.647Z,7.00
2019-05-13T01:49:06.107Z,7.00
2019-05-13T01:51:34.447Z,6.90
2019-05-13T01:54:04.125Z,6.90
2019-05-13T01:56:33.808Z,6.90
2019-05-13T01:58:59.663Z,7.00
2019-05-13T02:01:28.042Z,6.90
2019-05-13T02:03:56.461Z,6.90
2019-05-13T02:06:24.759Z,6.90
2019-05-13T02:08:54.478Z,6.90
2019-05-13T02:11:23.883Z,6.90
2019-05-13T02:13:50.359Z,6.90
2019-05-13T02:16:18.707Z,6.90
2019-05-13T02:18:47.401Z,6.90
2019-05-13T02:21:15.789Z,6.80
2019-05-13T02:23:44.423Z,6.80
2019-05-13T02:26:13.603Z,6.80
2019-05-13T02:28:43.479Z,6.80
2019-05-13T02:31:13.802Z,6.80
2019-05-13T02:33:38.433Z,6.80
2019-05-13T02:36:06.816Z,6.80
2019-05-13T02:38:35.815Z,6.80
2019-05-13T02:41:03.744Z,6.80
2019-05-13T02:43:33.354Z,6.80
2019-05-13T02:46:03.771Z,6.80
2019-05-13T02:48:32.620Z,6.80
2019-05-13T02:50:58.354Z,6.80
2019-05-13T02:53:26.662Z,6.80
2019-05-13T02:55:55.235Z,6.80
2019-05-13T02:58:24.703Z,6.80
2019-05-13T03:00:53.209Z,6.80
2019-05-13T03:03:23.119Z,6.80
2019-05-13T03:05:52.345Z,6.80
2019-05-13T03:08:34.210Z,6.80
2019-05-13T03:10:45.851Z,6.80
2019-05-13T03:13:14.195Z,6.80
2019-05-13T03:15:51.513Z,6.90
2019-05-13T03:18:18.021Z,6.90
2019-05-13T03:20:46.418Z,6.90
2019-05-13T03:23:15.076Z,6.90
2019-05-13T03:25:43.429Z,6.90
2019-05-13T03:28:13.431Z,6.90
2019-05-13T03:30:45.134Z,6.90
2019-05-13T03:33:11.415Z,6.90
2019-05-13T03:35:37.588Z,6.80
2019-05-13T03:38:05.821Z,6.80
2019-05-13T03:40:34.179Z,6.80
2019-05-13T03:43:03.069Z,6.80
2019-05-13T03:45:32.747Z,6.80
2019-05-13T03:48:03.661Z,6.80
2019-05-13T03:50:33.426Z,6.80
2019-05-13T03:52:57.819Z,6.80
2019-05-13T03:55:26.248Z,6.80
2019-05-13T03:57:54.645Z,6.80
2019-05-13T04:00:23.840Z,6.80
2019-05-13T04:02:52.251Z,6.90
2019-05-13T04:05:23.073Z,6.90
2019-05-13T04:07:52.034Z,7.00
2019-05-13T04:10:17.406Z,7.00
2019-05-13T04:12:45.777Z,7.00
2019-05-13T04:15:14.526Z,7.00
2019-05-13T04:17:43.012Z,7.10
2019-05-13T04:20:12.601Z,7.10
2019-05-13T04:22:42.553Z,7.10
2019-05-13T04:25:08.197Z,7.10
2019-05-13T04:27:36.525Z,7.20
2019-05-13T04:30:06.521Z,7.10
2019-05-13T04:32:34.897Z,7.20
2019-05-13T04:35:04.109Z,7.30
2019-05-13T04:37:33.089Z,7.30
2019-05-13T04:40:03.407Z,7.30
2019-05-13T04:42:28.865Z,7.30
2019-05-13T04:44:57.314Z,7.40
2019-05-13T04:47:25.706Z,7.40
2019-05-13T04:49:54.154Z,7.50
2019-05-13T04:52:22.720Z,7.50
2019-05-13T04:54:52.750Z,7.60
2019-05-13T04:57:22.378Z,7.60
2019-05-13T04:59:47.947Z,7.50
2019-05-13T05:02:49.755Z,7.40
2019-05-13T05:05:26.219Z,7.20
2019-05-13T05:08:03.124Z,7.20
2019-05-13T05:10:42.830Z,7.20
2019-05-13T05:13:22.088Z,7.20
2019-05-13T05:16:02.661Z,7.20
2019-05-13T05:18:42.110Z,7.30
2019-05-13T05:21:12.171Z,7.40
2019-05-13T05:23:51.853Z,7.50
2019-05-13T05:26:31.173Z,7.60
2019-05-13T05:29:11.360Z,7.60
2019-05-13T05:32:21.258Z,7.50
2019-05-13T05:34:58.228Z,7.50
2019-05-13T05:37:41.636Z,7.40
2019-05-13T05:40:08.190Z,7.50
2019-05-13T05:42:36.724Z,7.50
2019-05-13T05:45:05.853Z,7.50
2019-05-13T05:47:34.317Z,7.70
2019-05-13T05:50:03.215Z,7.90
2019-05-13T05:52:31.659Z,7.90
2019-05-13T05:55:02.422Z,7.90
2019-05-13T05:57:31.240Z,8.20
2019-05-13T05:59:57.928Z,8.40
2019-05-13T06:02:26.317Z,8.20
2019-05-13T06:04:54.742Z,8.30
2019-05-13T06:07:23.287Z,8.40
2019-05-13T06:09:51.705Z,8.30
2019-05-13T06:12:21.380Z,8.30
2019-05-13T06:14:52.226Z,8.30
2019-05-13T06:17:17.242Z,8.40
2019-05-13T06:19:45.616Z,8.30
2019-05-13T06:22:14.560Z,8.10
2019-05-13T06:24:42.952Z,8.20
2019-05-13T06:27:11.828Z,8.20
2019-05-13T06:29:42.051Z,8.40
2019-05-13T06:32:19.067Z,8.30
2019-05-13T06:34:36.757Z,8.30
2019-05-13T06:37:05.442Z,8.10
2019-05-13T06:39:33.796Z,8.00
2019-05-13T06:42:02.980Z,8.00
2019-05-13T06:44:31.615Z,8.10
2019-05-13T06:46:59.049Z,8.10
2019-05-13T06:49:27.407Z,8.10
2019-05-13T06:51:56.023Z,8.20
2019-05-13T06:54:24.364Z,8.10
2019-05-13T06:56:52.776Z,8.10
2019-05-13T06:59:22.382Z,8.30
2019-05-13T07:01:51.384Z,8.30
2019-05-13T07:04:18.230Z,8.10
2019-05-13T07:06:46.724Z,8.20
2019-05-13T07:09:15.032Z,8.30
2019-05-13T07:11:43.335Z,8.30
2019-05-13T07:14:12.692Z,8.20
2019-05-13T07:16:42.167Z,8.10
2019-05-13T07:19:08.605Z,7.90
2019-05-13T07:21:37.203Z,7.90
2019-05-13T07:24:05.542Z,7.90
2019-05-13T07:26:33.873Z,7.90
2019-05-13T07:29:03.538Z,8.00
2019-05-13T07:31:32.388Z,8.10
2019-05-13T07:34:02.073Z,8.00
2019-05-13T07:36:28.075Z,8.10
2019-05-13T07:38:56.475Z,8.00
2019-05-13T07:41:35.288Z,7.90
2019-05-13T07:43:53.826Z,7.90
2019-05-13T07:46:22.175Z,7.90
2019-05-13T07:48:52.120Z,7.90
2019-05-13T07:51:19.053Z,7.80
2019-05-13T07:53:47.389Z,7.80
2019-05-13T07:56:15.723Z,7.80
2019-05-13T07:58:44.539Z,7.80
2019-05-13T08:01:12.857Z,8.00
2019-05-13T08:03:42.131Z,8.00
2019-05-13T08:06:11.173Z,8.00
2019-05-13T08:08:38.362Z,7.80
2019-05-13T08:11:06.763Z,7.80
2019-05-13T08:13:35.276Z,7.80
2019-05-13T08:16:03.771Z,7.80
2019-05-13T08:18:32.232Z,7.90
2019-05-13T08:21:01.980Z,7.80
2019-05-13T08:23:29.064Z,7.60
2019-05-13T08:25:57.400Z,7.60
2019-05-13T08:28:25.898Z,7.60
2019-05-13T08:30:54.259Z,7.70
2019-05-13T08:33:22.805Z,7.70
2019-05-13T08:35:53.991Z,7.60
2019-05-13T08:38:19.538Z,7.70
2019-05-13T08:40:47.895Z,7.80
2019-05-13T08:43:16.368Z,7.90
2019-05-13T08:45:44.746Z,8.00
2019-05-13T08:48:13.162Z,7.90
2019-05-13T08:50:42.110Z,7.90
2019-05-13T08:53:12.180Z,8.00
2019-05-13T08:55:38.883Z,8.10
2019-05-13T08:58:07.286Z,8.10
2019-05-13T09:00:44.716Z,8.30
2019-05-13T09:03:13.459Z,8.30
2019-05-13T09:05:41.801Z,8.50
2019-05-13T09:08:11.537Z,8.60
2019-05-13T09:10:41.218Z,8.70
2019-05-13T09:13:07.436Z,8.90
2019-05-13T09:15:35.785Z,8.90
2019-05-13T09:18:04.231Z,8.90
2019-05-13T09:20:32.590Z,9.00
2019-05-13T09:23:02.098Z,9.30
2019-05-13T09:25:31.968Z,9.50
2019-05-13T09:27:57.966Z,9.70
2019-05-13T09:30:27.397Z,10.00
2019-05-13T09:32:54.878Z,10.60
2019-05-13T09:35:23.239Z,10.40
2019-05-13T09:37:51.682Z,10.30
2019-05-13T09:40:22.359Z,10.60
2019-05-13T09:42:52.081Z,10.90
2019-05-13T09:45:17.062Z,11.20
2019-05-13T09:47:45.546Z,11.30
2019-05-13T09:50:28.463Z,11.30
2019-05-13T09:52:42.997Z,10.90
2019-05-13T09:55:25.322Z,11.00
2019-05-13T09:57:41.552Z,11.10
2019-05-13T10:00:08.281Z,11.20
2019-05-13T10:02:36.987Z,11.20
2019-05-13T10:05:05.564Z,11.10
2019-05-13T10:07:33.871Z,11.30
2019-05-13T10:10:02.332Z,11.50
2019-05-13T10:12:32.010Z,11.80
2019-05-13T10:15:01.737Z,12.30
2019-05-13T10:17:27.532Z,12.40
2019-05-13T10:19:55.919Z,12.50
2019-05-13T10:22:24.232Z,13.00
2019-05-13T10:24:52.702Z,12.70
2019-05-13T10:27:22.362Z,13.30
2019-05-13T10:29:51.782Z,13.50
2019-05-13T10:32:18.311Z,13.80
2019-05-13T10:34:46.878Z,13.10
2019-05-13T10:37:15.319Z,12.60
2019-05-13T10:39:43.796Z,13.00
2019-05-13T10:42:12.438Z,13.20
2019-05-13T10:44:42.222Z,13.60
2019-05-13T10:47:11.862Z,13.40
2019-05-13T10:49:37.681Z,13.20
2019-05-13T10:52:06.108Z,13.00
2019-05-13T10:54:34.557Z,13.20
2019-05-13T10:57:04.061Z,13.00
2019-05-13T10:59:31.339Z,12.70
2019-05-13T11:02:02.169Z,12.30
2019-05-13T11:04:28.523Z,11.90
2019-05-13T11:06:56.858Z,12.00
2019-05-13T11:09:25.284Z,12.40
2019-05-13T11:11:53.687Z,12.30
2019-05-13T11:14:22.493Z,12.00
2019-05-13T11:16:52.311Z,11.90
2019-05-13T11:19:19.046Z,11.80
2019-05-13T11:21:50.681Z,11.70
2019-05-13T11:24:15.872Z,11.90
2019-05-13T11:26:44.244Z,12.10
2019-05-13T11:29:12.699Z,11.80
2019-05-13T11:31:42.862Z,11.80
2019-05-13T11:34:09.620Z,12.00
2019-05-13T11:36:37.960Z,12.20
2019-05-13T11:39:08.339Z,12.60
2019-05-13T11:41:36.662Z,12.80
2019-05-13T11:44:12.580Z,12.50
2019-05-13T11:46:33.760Z,12.70
2019-05-13T11:49:02.670Z,12.20
2019-05-13T11:51:31.989Z,12.10
2019-05-13T11:54:01.746Z,12.10
2019-05-13T11:56:27.686Z,12.00
2019-05-13T11:58:56.018Z,12.10
2019-05-13T12:01:24.499Z,12.30
2019-05-13T12:03:53.405Z,12.30
2019-05-13T12:06:23.220Z,12.80
2019-05-13T12:08:52.126Z,13.40
2019-05-13T12:11:18.622Z,13.30
2019-05-13T12:13:46.965Z,13.20
2019-05-13T12:16:15.740Z,13.30
2019-05-13T12:18:44.113Z,13.00
2019-05-13T12:21:12.521Z,12.90
2019-05-13T12:23:42.787Z,13.10
2019-05-13T12:26:09.367Z,13.40
2019-05-13T12:28:37.700Z,13.60
2019-05-13T12:31:06.323Z,13.90
2019-05-13T12:33:34.656Z,13.50
2019-05-13T12:36:03.435Z,13.70
2019-05-13T12:38:33.437Z,13.60
2019-05-13T12:41:04.612Z,13.60
2019-05-13T12:43:31.438Z,13.80
2019-05-13T12:45:57.273Z,13.80
2019-05-13T12:48:25.618Z,13.90
2019-05-13T12:50:54.381Z,14.10
2019-05-13T12:53:22.649Z,13.90
2019-05-13T12:55:55.778Z,13.40
2019-05-13T12:58:19.346Z,12.90
2019-05-13T13:00:47.884Z,12.80
2019-05-13T13:03:16.236Z,12.60
2019-05-13T13:05:44.919Z,12.40
2019-05-13T13:08:28.874Z,12.30
2019-05-13T13:10:42.485Z,12.70
2019-05-13T13:13:10.330Z,13.00
2019-05-13T13:15:46.630Z,13.30
2019-05-13T13:18:07.203Z,13.80
2019-05-13T13:20:41.636Z,14.00
2019-05-13T13:23:04.648Z,13.90
2019-05-13T13:25:33.881Z,13.80
2019-05-13T13:28:10.819Z,13.30
2019-05-13T13:30:34.573Z,12.90
2019-05-13T13:32:57.902Z,12.70
2019-05-13T13:35:26.281Z,12.50
2019-05-13T13:37:54.998Z,12.60
2019-05-13T13:40:28.490Z,12.40
2019-05-13T13:42:52.980Z,12.10
2019-05-13T13:45:22.764Z,12.10
2019-05-13T13:47:59.316Z,12.40
2019-05-13T13:50:17.265Z,12.50
2019-05-13T13:52:46.063Z,12.90
2019-05-13T13:55:15.912Z,13.00
2019-05-13T13:57:44.964Z,12.90
2019-05-13T14:00:31.880Z,12.50
2019-05-13T14:02:42.388Z,12.40
2019-05-13T14:05:08.448Z,12.20
2019-05-13T14:07:38.793Z,12.20
2019-05-13T14:10:07.188Z,12.00
2019-05-13T14:12:34.495Z,12.30
2019-05-13T14:15:03.121Z,12.80
2019-05-13T14:17:31.559Z,13.10
2019-05-13T14:20:05.195Z,13.30
2019-05-13T14:22:33.598Z,13.10
2019-05-13T14:25:02.092Z,13.20
2019-05-13T14:27:31.510Z,13.80
2019-05-13T14:30:01.341Z,13.80
2019-05-13T14:32:28.006Z,13.60
2019-05-13T14:34:56.900Z,13.40
2019-05-13T14:37:25.258Z,13.20
2019-05-13T14:39:53.665Z,13.10
2019-05-13T14:42:22.885Z,13.40
2019-05-13T14:44:52.119Z,13.80
2019-05-13T14:47:19.012Z,13.60
2019-05-13T14:49:47.806Z,13.50
2019-05-13T14:52:16.193Z,13.40
2019-05-13T14:54:44.528Z,13.10
2019-05-13T14:57:15.010Z,13.00
2019-05-13T14:59:41.775Z,12.90
2019-05-13T15:02:11.981Z,12.80
2019-05-13T15:04:41.915Z,12.80
2019-05-13T15:07:07.760Z,12.70
2019-05-13T15:09:36.287Z,12.60
2019-05-13T15:12:05.387Z,12.50
2019-05-13T15:14:33.811Z,12.20
2019-05-13T15:17:07.060Z,12.10
2019-05-13T15:19:31.728Z,12.30
2019-05-13T15:21:59.895Z,12.20
2019-05-13T15:24:28.401Z,12.10
2019-05-13T15:26:57.179Z,12.00
2019-05-13T15:29:25.630Z,12.10
2019-05-13T15:31:53.991Z,11.90
2019-05-13T15:34:25.562Z,11.90
2019-05-13T15:36:54.125Z,12.00
2019-05-13T15:39:22.525Z,12.10
2019-05-13T15:41:52.384Z,12.20
2019-05-13T15:44:21.924Z,12.40
2019-05-13T15:46:48.164Z,12.60
2019-05-13T15:49:16.924Z,12.70
2019-05-13T15:51:45.304Z,12.50
2019-05-13T15:54:15.643Z,12.30
2019-05-13T15:56:42.271Z,12.20
2019-05-13T15:59:12.536Z,12.00
2019-05-13T16:01:41.339Z,12.00
2019-05-13T16:04:07.565Z,12.00
2019-05-13T16:06:35.936Z,12.00
2019-05-13T16:09:06.094Z,12.00
2019-05-13T16:11:34.647Z,11.90
2019-05-13T16:14:02.979Z,11.90
2019-05-13T16:16:32.385Z,11.90
2019-05-13T16:19:00.188Z,11.90
2019-05-13T16:21:28.711Z,11.90
2019-05-13T16:23:57.090Z,11.80
2019-05-13T16:26:27.422Z,11.90
2019-05-13T16:28:54.258Z,12.10
2019-05-13T16:31:22.614Z,12.10
2019-05-13T16:33:52.232Z,12.00
2019-05-13T16:36:22.133Z,11.90
2019-05-13T16:38:47.889Z,11.80
2019-05-13T16:41:16.526Z,11.60
2019-05-13T16:43:44.932Z,11.60
2019-05-13T16:46:13.348Z,11.50
2019-05-13T16:48:41.857Z,11.50
2019-05-13T16:51:12.333Z,11.60
2019-05-13T16:53:38.686Z,11.60
2019-05-13T16:56:07.422Z,11.60
2019-05-13T16:58:35.795Z,11.60
2019-05-13T17:01:04.385Z,11.60
2019-05-13T17:03:32.955Z,11.60
2019-05-13T17:06:02.057Z,11.70
2019-05-13T17:08:31.839Z,11.60
2019-05-13T17:10:58.443Z,11.60
2019-05-13T17:13:26.795Z,11.50
2019-05-13T17:15:55.120Z,11.60
2019-05-13T17:18:23.890Z,11.60
2019-05-13T17:20:52.281Z,11.60
2019-05-13T17:23:20.676Z,11.50
2019-05-13T17:25:51.801Z,11.40
2019-05-13T17:28:17.641Z,11.40
2019-05-13T17:30:46.031Z,11.40
2019-05-13T17:33:14.646Z,11.40
2019-05-13T17:35:43.080Z,11.40
2019-05-13T17:38:11.582Z,11.40
2019-05-13T17:40:42.024Z,11.30
2019-05-13T17:43:08.790Z,11.20
2019-05-13T17:45:37.271Z,11.10
2019-05-13T17:48:06.264Z,11.10
2019-05-13T17:50:34.607Z,11.10
2019-05-13T17:53:02.972Z,11.10
2019-05-13T17:55:31.442Z,11.10
2019-05-13T17:58:01.415Z,11.10
2019-05-13T18:00:28.266Z,11.00
2019-05-13T18:02:56.773Z,10.90
2019-05-13T18:05:25.190Z,10.70
2019-05-13T18:07:53.615Z,10.70
2019-05-13T18:10:22.697Z,10.60
2019-05-13T18:12:51.117Z,10.50
2019-05-13T18:15:18.943Z,10.40
2019-05-13T18:17:47.406Z,10.30
2019-05-13T18:20:15.840Z,10.30
2019-05-13T18:22:44.197Z,10.20
2019-05-13T18:25:12.872Z,10.10
2019-05-13T18:27:41.702Z,10.00
2019-05-13T18:30:11.435Z,9.90
2019-05-13T18:32:38.292Z,9.80
2019-05-13T18:35:06.743Z,9.70
2019-05-13T18:37:35.137Z,9.50
2019-05-13T18:40:03.755Z,9.50
2019-05-13T18:42:32.136Z,9.40
2019-05-13T18:45:02.182Z,9.40
2019-05-13T18:47:31.170Z,9.30
2019-05-13T18:49:57.863Z,9.10
2019-05-13T18:52:26.166Z,9.00
2019-05-13T18:54:54.794Z,8.90
2019-05-13T18:57:23.140Z,8.80
2019-05-13T18:59:52.049Z,8.70
2019-05-13T19:02:21.395Z,8.60
2019-05-13T19:04:48.639Z,8.60
2019-05-13T19:07:17.091Z,8.50
2019-05-13T19:09:45.608Z,8.30
2019-05-13T19:12:14.024Z,8.30
2019-05-13T19:14:42.441Z,8.10
2019-05-13T19:17:12.315Z,8.10
2019-05-13T19:19:42.025Z,7.90
2019-05-13T19:22:08.045Z,7.80
2019-05-13T19:24:36.573Z,7.80
2019-05-13T19:27:04.955Z,7.70
2019-05-13T19:29:33.415Z,7.50
2019-05-13T19:32:02.141Z,7.40
2019-05-13T19:34:32.271Z,7.40
2019-05-13T19:36:58.920Z,7.30
2019-05-13T19:39:27.355Z,7.20
2019-05-13T19:41:55.700Z,7.20
2019-05-13T19:44:24.193Z,7.10
2019-05-13T19:46:52.681Z,7.10
2019-05-13T19:49:29.729Z,7.00
2019-05-13T19:51:51.971Z,6.90
2019-05-13T19:54:17.912Z,6.80
2019-05-13T19:56:46.248Z,6.80
2019-05-13T19:59:14.634Z,6.80
2019-05-13T20:01:43.033Z,6.70
2019-05-13T20:04:11.362Z,6.60
2019-05-13T20:06:41.476Z,6.50
2019-05-13T20:09:08.325Z,6.50
2019-05-13T20:11:36.717Z,6.40
2019-05-13T20:14:05.054Z,6.40
2019-05-13T20:16:33.564Z,6.40
2019-05-13T20:19:01.901Z,6.40
2019-05-13T20:21:32.006Z,6.30
2019-05-13T20:23:58.857Z,6.30
2019-05-13T20:26:27.159Z,6.20
2019-05-13T20:28:55.524Z,6.10
2019-05-13T20:31:23.946Z,6.10
2019-05-13T20:33:52.299Z,6.00
2019-05-13T20:36:22.254Z,5.80
2019-05-13T20:38:50.982Z,5.80
2019-05-13T20:41:17.524Z,5.80
2019-05-13T20:43:45.858Z,5.70
2019-05-13T20:46:14.319Z,5.60
2019-05-13T20:48:42.635Z,5.60
2019-05-13T20:51:11.365Z,5.50
2019-05-13T20:53:41.202Z,5.50
2019-05-13T20:56:07.872Z,5.40
2019-05-13T20:58:36.205Z,5.50
2019-05-13T21:01:05.020Z,5.40
2019-05-13T21:03:33.378Z,5.40
2019-05-13T21:06:08.839Z,5.40
2019-05-13T21:08:37.276Z,5.40
2019-05-13T21:11:05.611Z,5.30
2019-05-13T21:13:34.478Z,5.30
2019-05-13T21:16:02.829Z,5.20
2019-05-13T21:18:31.565Z,5.20
2019-05-13T21:20:59.639Z,5.10
2019-05-13T21:23:28.006Z,5.00
2019-05-13T21:25:56.320Z,5.00
2019-05-13T21:28:24.763Z,5.00
2019-05-13T21:30:53.113Z,5.00
2019-05-13T21:33:22.124Z,5.00
2019-05-13T21:35:51.159Z,4.90
2019-05-13T21:38:18.304Z,5.00
2019-05-13T21:40:46.659Z,5.00
2019-05-13T21:43:15.442Z,5.20
2019-05-13T21:45:43.757Z,5.30
2019-05-13T21:48:12.067Z,5.30
2019-05-13T21:50:41.444Z,5.30
2019-05-13T21:53:08.955Z,5.30
2019-05-13T21:55:37.289Z,5.30
2019-05-13T21:58:05.872Z,5.30
2019-05-13T22:00:41.570Z,5.30
2019-05-13T22:03:07.983Z,5.30
2019-05-13T22:05:36.327Z,5.30
2019-05-13T22:08:04.639Z,5.30
2019-05-13T22:10:33.142Z,5.30
2019-05-13T22:13:01.603Z,5.20
2019-05-13T22:15:32.165Z,5.30
2019-05-13T22:17:58.489Z,5.20
2019-05-13T22:20:26.807Z,5.20
2019-05-13T22:22:55.156Z,5.20
2019-05-13T22:25:23.897Z,5.10
2019-05-13T22:27:52.205Z,5.10
2019-05-13T22:30:20.627Z,5.10
2019-05-13T22:32:49.157Z,5.10
2019-05-13T22:35:17.495Z,5.00
2019-05-13T22:37:45.920Z,5.00
2019-05-13T22:40:14.440Z,5.00
2019-05-13T22:42:42.775Z,4.90
2019-05-13T22:45:11.679Z,4.90
2019-05-13T22:47:41.728Z,4.80
2019-05-13T22:50:08.331Z,4.70
2019-05-13T22:52:36.713Z,4.60
2019-05-13T22:55:05.948Z,4.60
2019-05-13T22:57:34.307Z,4.50
2019-05-13T23:00:02.726Z,4.40
2019-05-13T23:02:33.532Z,4.40
2019-05-13T23:05:01.687Z,4.30
2019-05-13T23:07:28.205Z,4.20
2019-05-13T23:09:56.643Z,4.10
2019-05-13T23:12:24.984Z,4.10
2019-05-13T23:14:53.414Z,4.00
2019-05-13T23:17:21.903Z,4.00
2019-05-13T23:19:52.254Z,3.90
2019-05-13T23:22:18.579Z,3.80
2019-05-13T23:24:47.030Z,3.70
2019-05-13T23:27:15.479Z,3.60
2019-05-13T23:29:43.799Z,3.70
2019-05-13T23:32:12.254Z,3.60
2019-05-13T23:34:42.314Z,3.50
2019-05-13T23:37:11.214Z,3.40
2019-05-13T23:39:37.438Z,3.40
2019-05-13T23:42:05.772Z,3.40
2019-05-13T23:44:34.097Z,3.30
2019-05-13T23:47:02.837Z,3.30
2019-05-13T23:49:31.667Z,3.20
2019-05-13T23:51:59.579Z,3.20
2019-05-13T23:54:28.421Z,3.10
2019-05-13T23:56:56.767Z,3.00
2019-05-13T23:59:25.107Z,3.00
